Henderson, Nevada Weather observations

Data are for observation ending at time listed.
 Day   Time    Ave.   Ave.  Ave.  Vector   Max.   Stn.    Total    Solar   Ave.  
  of    of     Air    Rel.  Wind   Wind    Wind   Baro.  Precip.   Rad.    Soil  
Year   Day     Temp.  Hum.  Speed  Dir.    Gust   Pres.                    Temp. 
2016   (PST)    F      %     mph   deg.    mph     mb.     in.     W/m2     F   
------------------------------------------------------------------------------
 149    4:40   71.2    21    2.0   148      3.7   932.2    0.00       8    66.1
 149    4:50   71.1    22    2.2   141      5.0   932.4    0.00      17    66.3
 149    5:00   71.6    21    2.3   150      5.7   932.5    0.00      20    66.6
 149    5:10   71.9    22    2.0   171      6.9   932.5    0.00      29    66.9
 149    5:20   71.4    23    0.7   158      3.7   932.6    0.00      61    66.8
 149    5:30   71.2    25    0.7   281      2.9   932.8    0.00     143    66.6
 149    5:40   71.3    25    2.2   308      4.0   932.8    0.00     180    66.9
 149    5:50   72.2    24    1.9   298      3.1   933.0    0.00     215    68.4
 149    6:00   72.7    25    2.3   304      3.8   933.0    0.00     252    70.7
 149    6:10   73.5    24    1.5   320      2.9   933.2    0.00     290    73.2
 149    6:20   74.1    24    1.5   324      3.7   933.3    0.00     329    75.4
 149    6:30   75.1    25    1.0   291      2.3   933.4    0.00     367    77.6
 149    6:40   76.3    23    0.8   314      1.9   933.5    0.00     400    79.6
 149    6:50   77.8    22    0.7    43      2.9   933.7    0.00     448    81.7
 149    7:00   79.0    21    0.9    58      2.9   933.8    0.00     490    83.5
 149    7:10   79.6    20    0.9    40      2.9   934.0    0.00     525    85.0
 149    7:20   79.4    20    1.0    23      2.4   934.0    0.00     536    86.3
 149    7:30   79.8    19    0.8    95      2.1   934.1    0.00     568    86.9
 149    7:40   80.5    19    1.0   329      2.6   934.1    0.00     554    88.2
 149    7:50   79.9    19    2.2    96      4.2   934.2    0.00     534    88.1
 149    8:00   80.0    19    1.5   259      3.3   934.2    0.00     521    87.8
 149    8:10   81.6    17    0.7    91      2.9   934.3    0.00     648    88.6
 149    8:20   83.0    17    1.2   335      2.9   934.3    0.00     662    90.1
 149    8:30   83.1    16    0.8    77      2.3   934.3    0.00     723    91.2
 149    8:40   83.8    16    1.5   331      4.1   934.2    0.00     710    92.4
 149    8:50   84.3    16    1.1    16      3.9   934.3    0.00     845    93.2
 149    9:00   85.7    15    1.7    27      6.1   934.3    0.00     888    94.8
 149    9:10   86.6    15    2.0   146      5.8   934.2    0.00     799    95.8
 149    9:20   86.1    15    1.5    15      3.4   934.2    0.00     825    95.8
 149    9:30   87.0    14    2.4    47      6.9   934.2    0.00     880    96.4
 149    9:40   87.9    14    2.4    75      8.8   934.1    0.00     976    97.2
 149    9:50   88.0    13    3.5   121     10.3   934.2    0.00     983    97.7
 149   10:00   88.5    14    3.4   131      6.8   934.1    0.00     949    98.0
 149   10:10   88.4    13    3.8   136      9.5   934.1    0.00     998    97.8
 149   10:20   89.9    12    3.4   132     10.0   934.1    0.00    1035    98.8
 149   10:30   89.9    12    3.3   218      8.9   934.0    0.00    1124    99.3
 149   10:40   90.6    12    4.2   176     10.6   933.9    0.00    1189    100.3
 149   10:50   90.9    12    3.7   197     11.0   933.9    0.00    1136    100.3
 149   11:00   92.0    12    3.1   188      9.3   933.8    0.00    1121    100.6
 149   11:10   92.1    12    3.2   189      9.3   933.7    0.00    1114    101.0
 149   11:20   92.7    12    3.4   167      9.1   933.7    0.00    1183    100.9
 149   11:30   90.3    12    4.7   181     13.7   933.6    0.00     334    99.7
 149   11:40   88.9    12    4.4   182     10.5   933.6    0.00     400    97.4
 149   11:50   89.5    12    2.7   140      6.4   933.6    0.00     707    96.3
 149   12:00   88.9    12    2.6    67      8.3   933.3    0.00     470    95.5
 149   12:10   89.3    12    2.6   188      8.3   933.3    0.00     571    95.0
 149   12:20   90.1    12    5.4   172     15.1   933.3    0.00    1147    94.8
 149   12:30   92.2    11    3.6   143      8.7   933.2    0.00    1207    95.9
 149   12:40   92.1    11    4.6   183     12.3   933.1    0.00     975    96.8
 149   12:50   92.4    11    4.5   164     12.1   933.0    0.00    1099    97.1
 149   13:00   93.5    10    5.0   184     10.8   932.9    0.00    1143    98.1
 149   13:10   92.2    11    5.9   208     14.2   932.8    0.00     473    98.4
 149   13:20   90.4    11    6.2   188     15.4   932.7    0.00     600    96.7
 149   13:30   92.0    11    5.1   165     16.0   932.7    0.00     972    97.0
 149   13:40   92.6    11    4.7   205     13.8   932.6    0.00    1009    98.2
 149   13:50   92.9    10    4.3   132      9.9   932.5    0.00     832    99.0
 149   14:00   92.1    11    3.7   211      7.9   932.4    0.00     557    98.6
 149   14:10   90.2    11    3.8   175     10.7   932.3    0.00     236    97.1
 149   14:20   90.5    11    7.7   106     14.9   932.1    0.00     719    95.7
 149   14:30   91.9    10    3.8   120      9.6   932.1    0.00     900    96.3
 149   14:40   93.0    10    3.7   157      8.6   932.1    0.00     904    97.8
 149   14:50   93.9    10    3.1   153      6.9   932.0    0.00     749    99.2
 149   15:00   93.1    10    2.9   172      6.7   931.9    0.00     558    99.2
 149   15:10   92.2    10    4.8   179     10.7   931.9    0.00     517    98.6
 149   15:20   91.2    10    2.4   206      6.4   931.7    0.00     593    97.6
 149   15:30   92.9    10    4.5   124     12.4   931.7    0.00     593    98.1
 149   15:40   91.8    10    3.5   155     13.0   931.7    0.00     428    97.6
 149   15:50   91.8    10    6.3   111     18.0   931.6    0.00     642    97.1
 149   16:00   92.1    10    3.9   120     11.7   931.6    0.00     626    97.3
 149   16:10   92.0    10    7.7   103     14.5   931.5    0.00     591    97.6
 149   16:20   91.8    10    6.0   110     12.2   931.3    0.00     561    97.4
 149   16:30   92.1    10    4.3   152     11.8   931.3    0.00     516    97.4
 149   16:40   92.4    10    2.9   162      9.6   931.4    0.00     394    97.4
 149   16:50   91.5     9    4.4   149     13.8   931.3    0.00     442    97.0
 149   17:00   91.9     9    4.4   174     13.4   931.2    0.00     394    96.8
 149   17:10   91.4     9    4.4   179     12.4   931.4    0.00     325    96.5
 149   17:20   90.8     9    4.3   197     10.1   931.3    0.00     244    95.6
 149   17:30   90.6     9    4.7   188     11.2   931.6    0.00     209    94.4
 149   17:40   90.4    10    3.7   173      9.6   931.5    0.00     182    93.4
 149   17:50   90.1    10    4.1   195      9.3   931.6    0.00     173    92.4
 149   18:00   89.5    10    3.4   192      7.4   931.8    0.00      97    91.5
 149   18:10   88.8    10    2.9   182      7.0   931.7    0.00      72    90.2
 149   18:20   88.0    10    3.5   193      8.9   931.7    0.00      45    88.6
 149   18:30   87.6    10    2.9   190      6.5   931.7    0.00      32    87.3
 149   18:40   86.8    10    2.6   190      9.3   931.9    0.00      16    86.0
 149   18:50   86.6    10    2.0   183      4.5   931.9    0.00       7    84.8
 149   19:00   85.8    10    1.7   178      4.7   932.0    0.00       5    83.6
 149   19:10   85.4    10    3.0   184      7.3   932.1    0.00       0    82.6
 149   19:20   85.0    11    1.5   159      5.6   932.1    0.00       0    81.8
 149   19:30   84.2    11    1.7   151      4.5   932.2    0.00       0    81.1
 149   19:40   83.8    11    2.3   148      5.4   932.3    0.00       0    80.4
 149   19:50   83.4    11    2.0   153      4.4   932.4    0.00       0    80.0
 149   20:00   82.8    12    1.9   167      5.8   932.5    0.00       0    79.4
 149   20:10   82.1    12    1.5   156      4.7   932.6    0.00       0    78.6
 149   20:20   82.1    12    2.2   151      5.0   932.7    0.00       0    78.2
 149   20:30   82.1    12    2.2   146      5.4   932.9    0.00       0    77.9
 149   20:40   81.8    12    2.5   159      6.7   933.0    0.00       0    77.6
 149   20:50   80.9    12    2.3   161      7.2   933.1    0.00       0    77.2
 149   21:00   80.8    12    2.6   156      5.6   933.1    0.00       0    76.8
 149   21:10   80.6    12    2.3   153      5.3   933.2    0.00       0    76.6
 149   21:20   80.1    12    3.1   173      8.6   933.3    0.00       0    76.2
 149   21:30   79.9    12    4.0   192      9.0   933.4    0.00       0    75.9
 149   21:40   80.2    12    5.8   185     11.1   933.5    0.00       0    75.8
 149   21:50   79.8    13    3.5   167      9.1   933.4    0.00       0    75.8
 149   22:00   79.4    13    3.8   172      9.1   933.4    0.00       0    75.7
 149   22:10   79.1    13    3.9   174      9.1   933.5    0.00       0    75.5
 149   22:20   78.7    13    3.8   175     10.3   933.5    0.00       0    75.3
 149   22:30   78.6    13    3.1   168      8.9   933.5    0.00       0    75.0
 149   22:40   78.6    13    4.7   184      9.6   933.5    0.00       0    74.8
 149   22:50   78.6    13    4.1   189      8.5   933.6    0.00       0    74.6
 149   23:00   78.4    14    2.0   215      8.0   933.7    0.00       0    74.4
 149   23:10   77.3    14    0.3   320      1.9   933.8    0.00       0    73.7
 149   23:20   76.2    15    0.5   293      2.2   933.8    0.00       0    72.8
 149   23:30   75.8    15    0.8   146      2.9   933.9    0.00       0    72.1
 149   23:40   75.7    15    1.6   114      3.9   933.8    0.00       0    71.4
 149   23:50   75.7    15    1.3   123      3.6   933.8    0.00       0    70.9
 150    0:00   75.1    16    0.7   159      2.0   933.8    0.00       0    70.4
 150    0:10   74.2    17    0.3   142      1.2   933.8    0.00       0    69.7
 150    0:20   73.4    17    0.3   167      1.7   933.8    0.00       0    69.1
 150    0:30   72.7    18    0.7   130      2.6   933.8    0.00       0    68.5
 150    0:40   72.9    18    1.3   126      3.2   933.7    0.00       0    68.0
 150    0:50   73.6    17    1.7   159      3.4   933.8    0.00       0    67.9
 150    1:00   74.6    16    2.6   160      6.0   933.7    0.00       0    68.0
 150    1:10   75.3    16    2.1   160      5.0   933.8    0.00       0    68.9
 150    1:20   73.9    17    1.5   167      5.8   933.7    0.00       0    68.9
 150    1:30   74.4    16    2.1   175      6.5   933.8    0.00       0    68.9
 150    1:40   74.4    16    1.6   145      4.8   933.9    0.00       0    69.2
 150    1:50   73.7    17    2.1   134      4.6   933.8    0.00       0    69.4
 150    2:00   73.1    17    1.9   135      4.2   933.7    0.00       0    69.4
 150    2:10   73.3    17    2.0   168      6.4   933.8    0.00       0    69.2
 150    2:20   74.0    17    3.3   190      6.8   933.8    0.00       0    69.1
 150    2:30   73.8    17    2.6   209      4.5   933.8    0.00       0    69.1
 150    2:40   73.4    17    2.9   185      5.1   933.8    0.00       0    69.0
 150    2:50   73.6    17    2.9   180      5.4   933.9    0.00       0    68.8
 150    3:00   73.8    17    1.6   158      5.8   933.9    0.00       0    68.8
 150    3:10   73.4    17    1.8   163      5.8   934.0    0.00       0    68.7
 150    3:20   73.3    17    1.3   155      5.4   934.1    0.00       0    68.6
 150    3:30   73.4    17    1.2   140      5.2   934.1    0.00       0    68.6
 150    3:40   72.8    18    1.4   117      4.7   934.1    0.00       0    68.4
 150    3:50   71.5    20    0.6    97      1.8   934.3    0.00       0    67.8
 150    4:00   70.0    20    0.5   124      1.8   934.4    0.00       0    66.8
 150    4:10   71.0    19    1.3   137      3.3   934.4    0.00       0    66.4
 150    4:20   71.0    19    1.0   119      2.6   934.5    0.00       0    66.2
 150    4:30   71.2    19    1.6   145      3.4   934.7    0.00       6    65.9

Return to Henderson, Nevada graphs page.


Western Regional Climate Center,wrcc@dri.edu